sensor_id;sensor_type;location;lat;lon;timestamp;P1;durP1;ratioP1;P2;durP2;ratioP2
60859;SDS011;46694;54.382;9.708;2023-11-22T00:00:14;2.17;;;1.87;;
60859;SDS011;46694;54.382;9.708;2023-11-22T00:02:40;3.50;;;1.90;;
60859;SDS011;46694;54.382;9.708;2023-11-22T00:05:06;4.30;;;1.83;;
60859;SDS011;46694;54.382;9.708;2023-11-22T00:07:32;1.70;;;1.60;;
60859;SDS011;46694;54.382;9.708;2023-11-22T00:09:58;2.38;;;2.15;;
60859;SDS011;46694;54.382;9.708;2023-11-22T00:12:24;3.38;;;1.98;;
60859;SDS011;46694;54.382;9.708;2023-11-22T00:14:50;2.27;;;2.07;;
60859;SDS011;46694;54.382;9.708;2023-11-22T00:17:16;1.67;;;1.55;;
60859;SDS011;46694;54.382;9.708;2023-11-22T00:19:45;2.27;;;1.50;;
60859;SDS011;46694;54.382;9.708;2023-11-22T00:22:11;1.52;;;1.40;;
60859;SDS011;46694;54.382;9.708;2023-11-22T00:24:39;5.78;;;1.63;;
60859;SDS011;46694;54.382;9.708;2023-11-22T00:27:07;2.45;;;1.60;;
60859;SDS011;46694;54.382;9.708;2023-11-22T00:29:33;3.17;;;1.90;;
60859;SDS011;46694;54.382;9.708;2023-11-22T00:31:59;1.80;;;1.42;;
60859;SDS011;46694;54.382;9.708;2023-11-22T00:34:27;6.87;;;2.13;;
60859;SDS011;46694;54.382;9.708;2023-11-22T00:36:53;2.47;;;1.65;;
60859;SDS011;46694;54.382;9.708;2023-11-22T00:39:19;3.57;;;1.60;;
60859;SDS011;46694;54.382;9.708;2023-11-22T00:41:47;2.00;;;1.77;;
60859;SDS011;46694;54.382;9.708;2023-11-22T00:44:13;2.83;;;2.00;;
60859;SDS011;46694;54.382;9.708;2023-11-22T00:46:39;9.13;;;2.00;;
60859;SDS011;46694;54.382;9.708;2023-11-22T00:49:05;1.57;;;1.47;;
60859;SDS011;46694;54.382;9.708;2023-11-22T00:51:31;2.93;;;1.80;;
60859;SDS011;46694;54.382;9.708;2023-11-22T00:54:00;1.83;;;1.65;;
60859;SDS011;46694;54.382;9.708;2023-11-22T00:56:26;6.97;;;1.77;;
60859;SDS011;46694;54.382;9.708;2023-11-22T00:58:52;4.30;;;2.70;;
60859;SDS011;46694;54.382;9.708;2023-11-22T01:01:19;10.38;;;2.38;;
60859;SDS011;46694;54.382;9.708;2023-11-22T01:03:45;3.40;;;1.98;;
60859;SDS011;46694;54.382;9.708;2023-11-22T01:06:12;3.00;;;2.75;;
60859;SDS011;46694;54.382;9.708;2023-11-22T01:08:38;2.97;;;2.67;;
60859;SDS011;46694;54.382;9.708;2023-11-22T01:11:04;3.40;;;3.03;;
60859;SDS011;46694;54.382;9.708;2023-11-22T01:13:33;3.72;;;2.63;;
60859;SDS011;46694;54.382;9.708;2023-11-22T01:16:05;5.28;;;3.40;;
60859;SDS011;46694;54.382;9.708;2023-11-22T01:18:34;2.83;;;2.20;;
60859;SDS011;46694;54.382;9.708;2023-11-22T01:21:00;2.30;;;2.13;;
60859;SDS011;46694;54.382;9.708;2023-11-22T01:23:26;3.42;;;2.58;;
60859;SDS011;46694;54.382;9.708;2023-11-22T01:25:55;6.05;;;2.45;;
60859;SDS011;46694;54.382;9.708;2023-11-22T01:28:21;8.53;;;2.63;;
60859;SDS011;46694;54.382;9.708;2023-11-22T01:30:47;2.67;;;2.33;;
60859;SDS011;46694;54.382;9.708;2023-11-22T01:33:14;2.63;;;2.00;;
60859;SDS011;46694;54.382;9.708;2023-11-22T01:35:40;1.67;;;1.45;;
60859;SDS011;46694;54.382;9.708;2023-11-22T01:38:06;4.53;;;2.05;;
60859;SDS011;46694;54.382;9.708;2023-11-22T01:40:32;3.00;;;1.60;;
60859;SDS011;46694;54.382;9.708;2023-11-22T01:42:59;2.45;;;2.08;;
60859;SDS011;46694;54.382;9.708;2023-11-22T01:45:25;2.45;;;2.25;;
60859;SDS011;46694;54.382;9.708;2023-11-22T01:47:51;3.85;;;2.50;;
60859;SDS011;46694;54.382;9.708;2023-11-22T01:50:17;2.45;;;1.80;;
60859;SDS011;46694;54.382;9.708;2023-11-22T01:52:44;6.18;;;2.63;;
60859;SDS011;46694;54.382;9.708;2023-11-22T01:55:11;1.45;;;1.35;;
60859;SDS011;46694;54.382;9.708;2023-11-22T01:57:38;3.47;;;2.03;;
60859;SDS011;46694;54.382;9.708;2023-11-22T02:00:04;2.00;;;1.38;;
60859;SDS011;46694;54.382;9.708;2023-11-22T02:02:35;1.95;;;1.60;;
60859;SDS011;46694;54.382;9.708;2023-11-22T02:05:01;1.92;;;1.77;;
60859;SDS011;46694;54.382;9.708;2023-11-22T02:07:27;1.90;;;1.80;;
60859;SDS011;46694;54.382;9.708;2023-11-22T02:09:53;1.50;;;1.40;;
60859;SDS011;46694;54.382;9.708;2023-11-22T02:12:19;1.93;;;1.83;;
60859;SDS011;46694;54.382;9.708;2023-11-22T02:14:45;1.50;;;1.40;;
60859;SDS011;46694;54.382;9.708;2023-11-22T02:17:11;2.10;;;1.60;;
60859;SDS011;46694;54.382;9.708;2023-11-22T02:19:37;2.90;;;1.80;;
60859;SDS011;46694;54.382;9.708;2023-11-22T02:22:03;2.70;;;1.47;;
60859;SDS011;46694;54.382;9.708;2023-11-22T02:24:31;3.57;;;1.83;;
60859;SDS011;46694;54.382;9.708;2023-11-22T02:26:59;8.75;;;1.77;;
60859;SDS011;46694;54.382;9.708;2023-11-22T02:29:25;1.90;;;1.42;;
60859;SDS011;46694;54.382;9.708;2023-11-22T02:31:51;2.03;;;1.83;;
60859;SDS011;46694;54.382;9.708;2023-11-22T02:34:16;3.00;;;1.80;;
60859;SDS011;46694;54.382;9.708;2023-11-22T02:36:42;2.30;;;2.00;;
60859;SDS011;46694;54.382;9.708;2023-11-22T02:39:11;3.10;;;1.88;;
60859;SDS011;46694;54.382;9.708;2023-11-22T02:41:39;4.63;;;1.75;;
60859;SDS011;46694;54.382;9.708;2023-11-22T02:44:05;1.83;;;1.37;;
60859;SDS011;46694;54.382;9.708;2023-11-22T02:46:33;1.55;;;1.45;;
60859;SDS011;46694;54.382;9.708;2023-11-22T02:48:59;2.57;;;2.33;;
60859;SDS011;46694;54.382;9.708;2023-11-22T02:51:25;2.73;;;1.70;;
60859;SDS011;46694;54.382;9.708;2023-11-22T02:53:51;2.85;;;1.85;;
60859;SDS011;46694;54.382;9.708;2023-11-22T02:56:18;2.10;;;1.90;;
60859;SDS011;46694;54.382;9.708;2023-11-22T02:58:44;8.67;;;2.27;;
60859;SDS011;46694;54.382;9.708;2023-11-22T03:01:10;5.25;;;1.80;;
60859;SDS011;46694;54.382;9.708;2023-11-22T03:03:36;4.73;;;2.07;;
60859;SDS011;46694;54.382;9.708;2023-11-22T03:06:02;3.13;;;1.83;;
60859;SDS011;46694;54.382;9.708;2023-11-22T03:08:31;1.90;;;1.40;;
60859;SDS011;46694;54.382;9.708;2023-11-22T03:10:57;3.25;;;1.55;;
60859;SDS011;46694;54.382;9.708;2023-11-22T03:13:23;3.17;;;2.27;;
60859;SDS011;46694;54.382;9.708;2023-11-22T03:15:49;1.70;;;1.60;;
60859;SDS011;46694;54.382;9.708;2023-11-22T03:18:15;1.93;;;1.63;;
60859;SDS011;46694;54.382;9.708;2023-11-22T03:20:41;3.30;;;1.67;;
60859;SDS011;46694;54.382;9.708;2023-11-22T03:23:08;1.67;;;1.27;;
60859;SDS011;46694;54.382;9.708;2023-11-22T03:25:35;1.63;;;1.52;;
60859;SDS011;46694;54.382;9.708;2023-11-22T03:28:01;8.07;;;1.70;;
60859;SDS011;46694;54.382;9.708;2023-11-22T03:30:28;1.88;;;1.60;;
60859;SDS011;46694;54.382;9.708;2023-11-22T03:32:53;1.80;;;1.70;;
60859;SDS011;46694;54.382;9.708;2023-11-22T03:35:20;5.88;;;2.65;;
60859;SDS011;46694;54.382;9.708;2023-11-22T03:37:46;3.17;;;1.67;;
60859;SDS011;46694;54.382;9.708;2023-11-22T03:40:12;5.03;;;2.03;;
60859;SDS011;46694;54.382;9.708;2023-11-22T03:42:38;2.38;;;1.52;;
60859;SDS011;46694;54.382;9.708;2023-11-22T03:45:05;2.15;;;1.90;;
60859;SDS011;46694;54.382;9.708;2023-11-22T03:47:31;2.08;;;1.92;;
60859;SDS011;46694;54.382;9.708;2023-11-22T03:49:58;2.00;;;1.67;;
60859;SDS011;46694;54.382;9.708;2023-11-22T03:52:24;5.13;;;1.70;;
60859;SDS011;46694;54.382;9.708;2023-11-22T03:54:52;2.13;;;1.98;;
60859;SDS011;46694;54.382;9.708;2023-11-22T03:57:18;3.97;;;2.42;;
60859;SDS011;46694;54.382;9.708;2023-11-22T03:59:43;4.03;;;2.17;;
60859;SDS011;46694;54.382;9.708;2023-11-22T04:02:09;2.63;;;1.63;;
60859;SDS011;46694;54.382;9.708;2023-11-22T04:04:36;1.80;;;1.58;;
60859;SDS011;46694;54.382;9.708;2023-11-22T04:07:04;2.28;;;1.83;;
60859;SDS011;46694;54.382;9.708;2023-11-22T04:09:31;3.85;;;1.77;;
60859;SDS011;46694;54.382;9.708;2023-11-22T04:11:56;2.00;;;1.80;;
60859;SDS011;46694;54.382;9.708;2023-11-22T04:14:23;1.35;;;1.25;;
60859;SDS011;46694;54.382;9.708;2023-11-22T04:16:48;2.00;;;1.70;;
60859;SDS011;46694;54.382;9.708;2023-11-22T04:19:14;4.33;;;2.53;;
60859;SDS011;46694;54.382;9.708;2023-11-22T04:21:40;2.83;;;2.57;;
60859;SDS011;46694;54.382;9.708;2023-11-22T04:24:05;5.27;;;2.47;;
60859;SDS011;46694;54.382;9.708;2023-11-22T04:26:32;1.70;;;1.60;;
60859;SDS011;46694;54.382;9.708;2023-11-22T04:28:57;4.40;;;2.30;;
60859;SDS011;46694;54.382;9.708;2023-11-22T04:31:24;1.88;;;1.77;;
60859;SDS011;46694;54.382;9.708;2023-11-22T04:33:50;2.63;;;2.27;;
60859;SDS011;46694;54.382;9.708;2023-11-22T04:36:15;2.50;;;2.30;;
60859;SDS011;46694;54.382;9.708;2023-11-22T04:38:41;3.93;;;2.97;;
60859;SDS011;46694;54.382;9.708;2023-11-22T04:41:07;3.78;;;2.70;;
60859;SDS011;46694;54.382;9.708;2023-11-22T04:43:33;3.73;;;3.23;;
60859;SDS011;46694;54.382;9.708;2023-11-22T04:45:59;2.87;;;2.50;;
60859;SDS011;46694;54.382;9.708;2023-11-22T04:48:25;9.20;;;4.50;;
60859;SDS011;46694;54.382;9.708;2023-11-22T04:50:50;5.80;;;3.27;;
60859;SDS011;46694;54.382;9.708;2023-11-22T04:53:16;6.77;;;3.70;;
60859;SDS011;46694;54.382;9.708;2023-11-22T04:55:43;4.85;;;4.13;;
60859;SDS011;46694;54.382;9.708;2023-11-22T04:58:09;6.40;;;4.03;;
60859;SDS011;46694;54.382;9.708;2023-11-22T05:00:35;4.40;;;4.00;;
60859;SDS011;46694;54.382;9.708;2023-11-22T05:03:01;3.83;;;3.23;;
60859;SDS011;46694;54.382;9.708;2023-11-22T05:05:27;4.13;;;3.80;;
60859;SDS011;46694;54.382;9.708;2023-11-22T05:07:53;5.90;;;4.38;;
60859;SDS011;46694;54.382;9.708;2023-11-22T05:10:19;3.90;;;3.50;;
60859;SDS011;46694;54.382;9.708;2023-11-22T05:12:45;6.73;;;3.93;;
60859;SDS011;46694;54.382;9.708;2023-11-22T05:15:10;4.93;;;4.53;;
60859;SDS011;46694;54.382;9.708;2023-11-22T05:17:36;11.32;;;4.18;;
60859;SDS011;46694;54.382;9.708;2023-11-22T05:20:02;5.43;;;3.73;;
60859;SDS011;46694;54.382;9.708;2023-11-22T05:22:29;5.18;;;4.35;;
60859;SDS011;46694;54.382;9.708;2023-11-22T05:24:55;5.70;;;5.10;;
60859;SDS011;46694;54.382;9.708;2023-11-22T05:27:21;4.50;;;4.10;;
60859;SDS011;46694;54.382;9.708;2023-11-22T05:29:47;3.73;;;3.40;;
60859;SDS011;46694;54.382;9.708;2023-11-22T05:32:12;4.50;;;4.10;;
60859;SDS011;46694;54.382;9.708;2023-11-22T05:34:38;4.67;;;3.50;;
60859;SDS011;46694;54.382;9.708;2023-11-22T05:37:05;11.00;;;4.60;;
60859;SDS011;46694;54.382;9.708;2023-11-22T05:39:31;4.75;;;4.15;;
60859;SDS011;46694;54.382;9.708;2023-11-22T05:41:57;4.77;;;4.33;;
60859;SDS011;46694;54.382;9.708;2023-11-22T05:44:23;7.07;;;4.00;;
60859;SDS011;46694;54.382;9.708;2023-11-22T05:46:50;5.10;;;4.28;;
60859;SDS011;46694;54.382;9.708;2023-11-22T05:49:16;4.95;;;4.45;;
60859;SDS011;46694;54.382;9.708;2023-11-22T05:51:42;8.57;;;5.13;;
60859;SDS011;46694;54.382;9.708;2023-11-22T05:54:08;4.30;;;4.00;;
60859;SDS011;46694;54.382;9.708;2023-11-22T05:56:36;5.22;;;4.65;;
60859;SDS011;46694;54.382;9.708;2023-11-22T05:59:02;7.18;;;5.43;;
60859;SDS011;46694;54.382;9.708;2023-11-22T06:01:28;7.05;;;5.65;;
60859;SDS011;46694;54.382;9.708;2023-11-22T06:03:55;4.90;;;4.50;;
60859;SDS011;46694;54.382;9.708;2023-11-22T06:06:21;9.00;;;5.13;;
60859;SDS011;46694;54.382;9.708;2023-11-22T06:08:47;4.95;;;4.45;;
60859;SDS011;46694;54.382;9.708;2023-11-22T06:11:13;4.50;;;4.10;;
60859;SDS011;46694;54.382;9.708;2023-11-22T06:13:40;8.43;;;4.65;;
60859;SDS011;46694;54.382;9.708;2023-11-22T06:16:07;5.93;;;4.70;;
60859;SDS011;46694;54.382;9.708;2023-11-22T06:18:34;7.68;;;5.95;;
60859;SDS011;46694;54.382;9.708;2023-11-22T06:21:05;6.25;;;5.45;;
60859;SDS011;46694;54.382;9.708;2023-11-22T06:23:31;9.60;;;6.28;;
60859;SDS011;46694;54.382;9.708;2023-11-22T06:25:58;7.22;;;6.53;;
60859;SDS011;46694;54.382;9.708;2023-11-22T06:28:23;6.40;;;5.40;;
60859;SDS011;46694;54.382;9.708;2023-11-22T06:30:49;7.37;;;6.43;;
60859;SDS011;46694;54.382;9.708;2023-11-22T06:33:15;6.00;;;5.47;;
60859;SDS011;46694;54.382;9.708;2023-11-22T06:35:41;8.43;;;6.37;;
60859;SDS011;46694;54.382;9.708;2023-11-22T06:38:07;10.27;;;6.95;;
60859;SDS011;46694;54.382;9.708;2023-11-22T06:40:33;9.00;;;6.93;;
60859;SDS011;46694;54.382;9.708;2023-11-22T06:42:59;13.03;;;7.97;;
60859;SDS011;46694;54.382;9.708;2023-11-22T06:45:25;9.20;;;7.53;;
60859;SDS011;46694;54.382;9.708;2023-11-22T06:47:51;7.00;;;5.93;;
60859;SDS011;46694;54.382;9.708;2023-11-22T06:50:17;9.77;;;6.80;;
60859;SDS011;46694;54.382;9.708;2023-11-22T06:52:43;6.63;;;5.70;;
60859;SDS011;46694;54.382;9.708;2023-11-22T06:55:10;9.52;;;6.40;;
60859;SDS011;46694;54.382;9.708;2023-11-22T06:57:36;6.43;;;4.90;;
60859;SDS011;46694;54.382;9.708;2023-11-22T07:00:03;11.55;;;5.00;;
60859;SDS011;46694;54.382;9.708;2023-11-22T07:02:30;5.50;;;4.20;;
60859;SDS011;46694;54.382;9.708;2023-11-22T07:04:56;7.13;;;4.63;;
60859;SDS011;46694;54.382;9.708;2023-11-22T07:07:24;7.55;;;4.18;;
60859;SDS011;46694;54.382;9.708;2023-11-22T07:09:50;6.43;;;5.22;;
60859;SDS011;46694;54.382;9.708;2023-11-22T07:12:16;8.03;;;4.20;;
60859;SDS011;46694;54.382;9.708;2023-11-22T07:14:42;3.17;;;2.97;;
60859;SDS011;46694;54.382;9.708;2023-11-22T07:17:08;3.30;;;3.00;;
60859;SDS011;46694;54.382;9.708;2023-11-22T07:19:34;3.70;;;3.30;;
60859;SDS011;46694;54.382;9.708;2023-11-22T07:22:06;4.13;;;3.33;;
60859;SDS011;46694;54.382;9.708;2023-11-22T07:24:41;5.70;;;3.15;;
60859;SDS011;46694;54.382;9.708;2023-11-22T07:27:13;4.32;;;2.75;;
60859;SDS011;46694;54.382;9.708;2023-11-22T07:29:40;2.63;;;2.47;;
60859;SDS011;46694;54.382;9.708;2023-11-22T07:32:06;4.60;;;3.20;;
60859;SDS011;46694;54.382;9.708;2023-11-22T07:34:34;5.95;;;2.83;;
60859;SDS011;46694;54.382;9.708;2023-11-22T07:37:00;6.85;;;3.13;;
60859;SDS011;46694;54.382;9.708;2023-11-22T07:39:27;5.57;;;3.00;;
60859;SDS011;46694;54.382;9.708;2023-11-22T07:41:53;2.70;;;2.50;;
60859;SDS011;46694;54.382;9.708;2023-11-22T07:44:22;3.20;;;2.10;;
60859;SDS011;46694;54.382;9.708;2023-11-22T07:46:49;2.80;;;2.60;;
60859;SDS011;46694;54.382;9.708;2023-11-22T07:49:16;7.32;;;2.95;;
60859;SDS011;46694;54.382;9.708;2023-11-22T07:51:43;9.50;;;3.47;;
60859;SDS011;46694;54.382;9.708;2023-11-22T07:54:10;7.25;;;3.15;;
60859;SDS011;46694;54.382;9.708;2023-11-22T07:56:40;3.55;;;3.10;;
60859;SDS011;46694;54.382;9.708;2023-11-22T07:59:11;6.22;;;3.25;;
60859;SDS011;46694;54.382;9.708;2023-11-22T08:01:37;3.45;;;3.15;;
60859;SDS011;46694;54.382;9.708;2023-11-22T08:04:04;5.47;;;3.25;;
60859;SDS011;46694;54.382;9.708;2023-11-22T08:06:31;4.10;;;3.50;;
60859;SDS011;46694;54.382;9.708;2023-11-22T08:08:58;5.40;;;4.03;;
60859;SDS011;46694;54.382;9.708;2023-11-22T08:11:29;6.68;;;3.95;;
60859;SDS011;46694;54.382;9.708;2023-11-22T08:13:56;5.45;;;3.60;;
60859;SDS011;46694;54.382;9.708;2023-11-22T08:16:24;5.07;;;3.50;;
60859;SDS011;46694;54.382;9.708;2023-11-22T08:18:53;7.13;;;5.38;;
60859;SDS011;46694;54.382;9.708;2023-11-22T08:21:19;9.23;;;7.10;;
60859;SDS011;46694;54.382;9.708;2023-11-22T08:23:47;5.10;;;4.40;;
60859;SDS011;46694;54.382;9.708;2023-11-22T08:26:14;3.65;;;3.28;;
60859;SDS011;46694;54.382;9.708;2023-11-22T08:28:40;5.38;;;3.67;;
60859;SDS011;46694;54.382;9.708;2023-11-22T08:31:06;3.83;;;3.53;;
60859;SDS011;46694;54.382;9.708;2023-11-22T08:33:35;5.13;;;4.68;;
60859;SDS011;46694;54.382;9.708;2023-11-22T08:36:02;8.73;;;5.38;;
60859;SDS011;46694;54.382;9.708;2023-11-22T08:38:30;6.45;;;4.68;;
60859;SDS011;46694;54.382;9.708;2023-11-22T08:41:06;5.95;;;5.35;;
60859;SDS011;46694;54.382;9.708;2023-11-22T08:43:32;11.05;;;5.20;;
60859;SDS011;46694;54.382;9.708;2023-11-22T08:46:01;6.88;;;4.40;;
60859;SDS011;46694;54.382;9.708;2023-11-22T08:48:29;6.03;;;5.35;;
60859;SDS011;46694;54.382;9.708;2023-11-22T08:50:55;4.40;;;4.00;;
60859;SDS011;46694;54.382;9.708;2023-11-22T08:53:22;5.40;;;4.90;;
60859;SDS011;46694;54.382;9.708;2023-11-22T08:55:48;5.50;;;4.67;;
60859;SDS011;46694;54.382;9.708;2023-11-22T08:58:14;5.50;;;5.00;;
60859;SDS011;46694;54.382;9.708;2023-11-22T09:00:40;8.57;;;7.27;;
60859;SDS011;46694;54.382;9.708;2023-11-22T09:03:07;5.88;;;4.55;;
60859;SDS011;46694;54.382;9.708;2023-11-22T09:05:33;6.38;;;4.68;;
60859;SDS011;46694;54.382;9.708;2023-11-22T09:07:59;14.00;;;5.40;;
60859;SDS011;46694;54.382;9.708;2023-11-22T09:10:25;35.50;;;6.00;;
60859;SDS011;46694;54.382;9.708;2023-11-22T09:12:52;4.07;;;3.70;;
60859;SDS011;46694;54.382;9.708;2023-11-22T09:15:18;10.38;;;7.90;;
60859;SDS011;46694;54.382;9.708;2023-11-22T09:17:48;5.72;;;3.88;;
60859;SDS011;46694;54.382;9.708;2023-11-22T09:20:15;3.20;;;3.00;;
60859;SDS011;46694;54.382;9.708;2023-11-22T09:22:45;5.95;;;3.67;;
60859;SDS011;46694;54.382;9.708;2023-11-22T09:25:15;6.93;;;4.30;;
60859;SDS011;46694;54.382;9.708;2023-11-22T09:27:44;5.75;;;4.20;;
60859;SDS011;46694;54.382;9.708;2023-11-22T09:30:12;5.25;;;3.88;;
60859;SDS011;46694;54.382;9.708;2023-11-22T09:32:47;4.97;;;4.45;;
60859;SDS011;46694;54.382;9.708;2023-11-22T09:35:14;5.00;;;4.50;;
60859;SDS011;46694;54.382;9.708;2023-11-22T09:37:40;5.25;;;4.75;;
60859;SDS011;46694;54.382;9.708;2023-11-22T09:40:10;4.82;;;4.28;;
60859;SDS011;46694;54.382;9.708;2023-11-22T09:42:37;4.40;;;4.00;;
60859;SDS011;46694;54.382;9.708;2023-11-22T09:45:03;10.13;;;6.20;;
60859;SDS011;46694;54.382;9.708;2023-11-22T09:47:30;6.03;;;5.50;;
60859;SDS011;46694;54.382;9.708;2023-11-22T09:50:00;6.05;;;4.50;;
60859;SDS011;46694;54.382;9.708;2023-11-22T09:52:32;7.97;;;6.32;;
60859;SDS011;46694;54.382;9.708;2023-11-22T09:55:02;7.63;;;6.55;;
60859;SDS011;46694;54.382;9.708;2023-11-22T09:57:28;8.52;;;5.30;;
60859;SDS011;46694;54.382;9.708;2023-11-22T09:59:55;10.25;;;7.45;;
60859;SDS011;46694;54.382;9.708;2023-11-22T10:02:24;8.68;;;7.28;;
60859;SDS011;46694;54.382;9.708;2023-11-22T10:04:53;21.52;;;16.67;;
60859;SDS011;46694;54.382;9.708;2023-11-22T10:07:19;8.63;;;5.07;;
60859;SDS011;46694;54.382;9.708;2023-11-22T10:09:45;7.00;;;6.10;;
60859;SDS011;46694;54.382;9.708;2023-11-22T10:12:13;6.40;;;5.03;;
60859;SDS011;46694;54.382;9.708;2023-11-22T10:14:46;5.85;;;5.07;;
60859;SDS011;46694;54.382;9.708;2023-11-22T10:17:13;9.75;;;7.65;;
60859;SDS011;46694;54.382;9.708;2023-11-22T10:19:41;5.93;;;5.25;;
60859;SDS011;46694;54.382;9.708;2023-11-22T10:22:07;6.50;;;4.50;;
60859;SDS011;46694;54.382;9.708;2023-11-22T10:24:34;5.93;;;4.25;;
60859;SDS011;46694;54.382;9.708;2023-11-22T10:27:01;4.80;;;4.20;;
60859;SDS011;46694;54.382;9.708;2023-11-22T10:29:27;9.95;;;4.47;;
60859;SDS011;46694;54.382;9.708;2023-11-22T10:31:53;4.70;;;4.05;;
60859;SDS011;46694;54.382;9.708;2023-11-22T10:34:23;4.15;;;3.40;;
60859;SDS011;46694;54.382;9.708;2023-11-22T10:36:50;3.95;;;3.42;;
60859;SDS011;46694;54.382;9.708;2023-11-22T10:39:24;3.72;;;3.42;;
60859;SDS011;46694;54.382;9.708;2023-11-22T10:41:51;5.97;;;4.47;;
60859;SDS011;46694;54.382;9.708;2023-11-22T10:44:19;5.43;;;4.22;;
60859;SDS011;46694;54.382;9.708;2023-11-22T10:46:46;8.68;;;4.82;;
60859;SDS011;46694;54.382;9.708;2023-11-22T10:49:12;4.25;;;3.85;;
60859;SDS011;46694;54.382;9.708;2023-11-22T10:51:39;5.23;;;4.07;;
60859;SDS011;46694;54.382;9.708;2023-11-22T10:54:06;5.80;;;4.15;;
60859;SDS011;46694;54.382;9.708;2023-11-22T10:56:40;6.47;;;5.10;;
60859;SDS011;46694;54.382;9.708;2023-11-22T10:59:13;10.38;;;4.63;;
60859;SDS011;46694;54.382;9.708;2023-11-22T11:01:41;5.88;;;3.72;;
60859;SDS011;46694;54.382;9.708;2023-11-22T11:07:12;6.35;;;4.15;;
60859;SDS011;46694;54.382;9.708;2023-11-22T11:09:42;6.07;;;4.60;;
60859;SDS011;46694;54.382;9.708;2023-11-22T11:12:11;7.65;;;4.72;;
60859;SDS011;46694;54.382;9.708;2023-11-22T11:14:37;5.53;;;3.10;;
60859;SDS011;46694;54.382;9.708;2023-11-22T11:17:04;8.55;;;3.50;;
60859;SDS011;46694;54.382;9.708;2023-11-22T11:19:31;4.32;;;3.40;;
60859;SDS011;46694;54.382;9.708;2023-11-22T11:21:57;7.20;;;3.63;;
60859;SDS011;46694;54.382;9.708;2023-11-22T11:24:24;6.50;;;4.20;;
60859;SDS011;46694;54.382;9.708;2023-11-22T11:26:50;4.40;;;3.10;;
60859;SDS011;46694;54.382;9.708;2023-11-22T11:31:56;14.85;;;3.72;;
60859;SDS011;46694;54.382;9.708;2023-11-22T11:34:23;65.23;;;3.77;;
60859;SDS011;46694;54.382;9.708;2023-11-22T11:36:52;5.80;;;3.22;;
60859;SDS011;46694;54.382;9.708;2023-11-22T11:39:26;5.30;;;3.38;;
60859;SDS011;46694;54.382;9.708;2023-11-22T11:42:08;2.95;;;2.75;;
60859;SDS011;46694;54.382;9.708;2023-11-22T11:44:35;3.45;;;2.80;;
60859;SDS011;46694;54.382;9.708;2023-11-22T11:47:10;4.00;;;3.33;;
60859;SDS011;46694;54.382;9.708;2023-11-22T11:49:36;3.38;;;2.90;;
60859;SDS011;46694;54.382;9.708;2023-11-22T11:52:04;4.40;;;3.00;;
60859;SDS011;46694;54.382;9.708;2023-11-22T11:54:30;2.70;;;2.50;;
60859;SDS011;46694;54.382;9.708;2023-11-22T11:57:01;3.30;;;3.00;;
60859;SDS011;46694;54.382;9.708;2023-11-22T11:59:27;3.10;;;2.90;;
60859;SDS011;46694;54.382;9.708;2023-11-22T12:01:55;5.63;;;3.10;;
60859;SDS011;46694;54.382;9.708;2023-11-22T12:04:23;4.45;;;2.40;;
60859;SDS011;46694;54.382;9.708;2023-11-22T12:06:49;4.10;;;3.15;;
60859;SDS011;46694;54.382;9.708;2023-11-22T12:09:27;4.05;;;3.63;;
60859;SDS011;46694;54.382;9.708;2023-11-22T12:11:56;7.22;;;3.30;;
60859;SDS011;46694;54.382;9.708;2023-11-22T12:14:26;5.18;;;3.35;;
60859;SDS011;46694;54.382;9.708;2023-11-22T12:16:52;4.05;;;3.75;;
60859;SDS011;46694;54.382;9.708;2023-11-22T12:19:23;3.38;;;3.08;;
60859;SDS011;46694;54.382;9.708;2023-11-22T12:21:57;3.65;;;3.08;;
60859;SDS011;46694;54.382;9.708;2023-11-22T12:24:23;8.50;;;3.50;;
60859;SDS011;46694;54.382;9.708;2023-11-22T12:26:49;3.53;;;2.72;;
60859;SDS011;46694;54.382;9.708;2023-11-22T12:29:16;2.83;;;2.63;;
60859;SDS011;46694;54.382;9.708;2023-11-22T12:31:49;3.70;;;2.83;;
60859;SDS011;46694;54.382;9.708;2023-11-22T12:34:17;2.70;;;2.50;;
60859;SDS011;46694;54.382;9.708;2023-11-22T12:36:44;3.03;;;2.78;;
60859;SDS011;46694;54.382;9.708;2023-11-22T12:39:12;2.95;;;2.10;;
60859;SDS011;46694;54.382;9.708;2023-11-22T12:41:45;2.53;;;2.33;;
60859;SDS011;46694;54.382;9.708;2023-11-22T12:44:15;2.45;;;2.13;;
60859;SDS011;46694;54.382;9.708;2023-11-22T12:46:54;8.10;;;2.75;;
60859;SDS011;46694;54.382;9.708;2023-11-22T12:49:24;3.28;;;2.97;;
60859;SDS011;46694;54.382;9.708;2023-11-22T12:51:54;4.03;;;2.78;;
60859;SDS011;46694;54.382;9.708;2023-11-22T12:54:22;4.35;;;2.60;;
60859;SDS011;46694;54.382;9.708;2023-11-22T12:56:48;3.80;;;2.80;;
60859;SDS011;46694;54.382;9.708;2023-11-22T12:59:15;3.45;;;3.10;;
60859;SDS011;46694;54.382;9.708;2023-11-22T13:01:42;2.80;;;2.00;;
60859;SDS011;46694;54.382;9.708;2023-11-22T13:04:08;2.83;;;2.60;;
60859;SDS011;46694;54.382;9.708;2023-11-22T13:06:33;2.70;;;2.50;;
60859;SDS011;46694;54.382;9.708;2023-11-22T13:08:59;5.33;;;2.30;;
60859;SDS011;46694;54.382;9.708;2023-11-22T13:11:27;3.30;;;3.00;;
60859;SDS011;46694;54.382;9.708;2023-11-22T13:13:52;5.97;;;4.15;;
60859;SDS011;46694;54.382;9.708;2023-11-22T13:16:18;10.87;;;6.90;;
60859;SDS011;46694;54.382;9.708;2023-11-22T13:18:44;20.30;;;15.73;;
60859;SDS011;46694;54.382;9.708;2023-11-22T13:21:10;14.37;;;10.10;;
60859;SDS011;46694;54.382;9.708;2023-11-22T13:23:35;20.47;;;18.03;;
60859;SDS011;46694;54.382;9.708;2023-11-22T13:26:01;19.33;;;11.53;;
60859;SDS011;46694;54.382;9.708;2023-11-22T13:28:28;9.18;;;6.88;;
60859;SDS011;46694;54.382;9.708;2023-11-22T13:30:53;17.27;;;10.07;;
60859;SDS011;46694;54.382;9.708;2023-11-22T13:33:19;10.20;;;8.40;;
60859;SDS011;46694;54.382;9.708;2023-11-22T13:35:45;11.00;;;8.83;;
60859;SDS011;46694;54.382;9.708;2023-11-22T13:38:12;2.33;;;2.20;;
60859;SDS011;46694;54.382;9.708;2023-11-22T13:40:38;16.30;;;12.63;;
60859;SDS011;46694;54.382;9.708;2023-11-22T13:43:10;7.07;;;5.78;;
60859;SDS011;46694;54.382;9.708;2023-11-22T13:45:38;14.32;;;10.48;;
60859;SDS011;46694;54.382;9.708;2023-11-22T13:48:06;5.28;;;3.70;;
60859;SDS011;46694;54.382;9.708;2023-11-22T13:50:36;10.85;;;8.50;;
60859;SDS011;46694;54.382;9.708;2023-11-22T13:53:02;4.68;;;2.97;;
60859;SDS011;46694;54.382;9.708;2023-11-22T13:55:29;3.95;;;2.78;;
60859;SDS011;46694;54.382;9.708;2023-11-22T13:57:56;6.30;;;3.10;;
60859;SDS011;46694;54.382;9.708;2023-11-22T14:00:24;3.00;;;2.17;;
60859;SDS011;46694;54.382;9.708;2023-11-22T14:02:54;6.07;;;2.75;;
60859;SDS011;46694;54.382;9.708;2023-11-22T14:05:24;8.68;;;5.38;;
60859;SDS011;46694;54.382;9.708;2023-11-22T14:07:54;6.78;;;2.33;;
60859;SDS011;46694;54.382;9.708;2023-11-22T14:10:20;12.57;;;7.20;;
60859;SDS011;46694;54.382;9.708;2023-11-22T14:12:47;2.88;;;2.40;;
60859;SDS011;46694;54.382;9.708;2023-11-22T14:15:14;8.52;;;5.35;;
60859;SDS011;46694;54.382;9.708;2023-11-22T14:17:40;8.40;;;2.80;;
60859;SDS011;46694;54.382;9.708;2023-11-22T14:22:34;6.40;;;5.40;;
60859;SDS011;46694;54.382;9.708;2023-11-22T14:25:08;6.72;;;3.35;;
60859;SDS011;46694;54.382;9.708;2023-11-22T14:27:42;12.15;;;7.35;;
60859;SDS011;46694;54.382;9.708;2023-11-22T14:30:13;3.67;;;1.77;;
60859;SDS011;46694;54.382;9.708;2023-11-22T14:32:42;4.25;;;3.75;;
60859;SDS011;46694;54.382;9.708;2023-11-22T14:35:08;14.18;;;5.38;;
60859;SDS011;46694;54.382;9.708;2023-11-22T14:37:35;8.75;;;7.72;;
60859;SDS011;46694;54.382;9.708;2023-11-22T14:40:04;17.52;;;11.07;;
60859;SDS011;46694;54.382;9.708;2023-11-22T14:42:38;6.63;;;4.03;;
60859;SDS011;46694;54.382;9.708;2023-11-22T14:45:10;5.25;;;3.20;;
60859;SDS011;46694;54.382;9.708;2023-11-22T14:47:39;13.25;;;7.80;;
60859;SDS011;46694;54.382;9.708;2023-11-22T14:50:06;15.27;;;10.23;;
60859;SDS011;46694;54.382;9.708;2023-11-22T14:52:36;6.97;;;6.28;;